Time;durP1;ratioP1;P1;durP2;ratioP2;P2;SDS_P1;SDS_P2;PMS_P1;PMS_P2;Temp;Humidity;BMP_temperature;BMP_pressure;BME280_temperature;BME280_humidity;BME280_pressure;Samples;Min_cycle;Max_cycle;Signal;HPM_P1;HPM_P2
2022/01/22 00:00:38;;;;;;;;;;;4.70;99.90;;;;;;5056303;28;19931;-77
2022/01/22 00:03:05;;;;;;;;;;;4.70;99.90;;;;;;5053316;28;19925;-77
2022/01/22 00:05:32;;;;;;;;;;;4.70;99.90;;;;;;5053860;28;19925;-77
2022/01/22 00:07:58;;;;;;;;;;;4.60;99.90;;;;;;5056890;28;19924;-77
2022/01/22 00:10:25;;;;;;;;;;;4.60;99.90;;;;;;5045124;28;19933;-77
2022/01/22 00:14:23;;;;;;;;;;;4.60;99.90;;;;;;5062091;28;20015;-77
2022/01/22 00:15:56;;;;;;;;;;;4.60;99.90;;;;;;5055755;28;19925;-78
2022/01/22 00:18:23;;;;;;;;;;;4.60;99.90;;;;;;5057929;28;20418;-76
2022/01/22 00:20:49;;;;;;;;;;;4.60;99.90;;;;;;5064892;28;20391;-79
2022/01/22 00:23:19;;;;;;;;;;;4.60;99.90;;;;;;5068139;28;20348;-78
2022/01/22 00:25:46;;;;;;;;;;;4.50;99.90;;;;;;5057691;28;19925;-78
2022/01/22 00:28:13;;;;;;;;;;;4.60;99.90;;;;;;5065586;28;19939;-78
2022/01/22 00:30:40;;;;;;;;;;;4.60;99.90;;;;;;5055962;28;19932;-78
2022/01/22 00:33:08;;;;;;;;;;;4.50;99.90;;;;;;5066943;28;19971;-78
2022/01/22 00:35:34;;;;;;;;;;;4.60;99.90;;;;;;5063207;28;19924;-79
2022/01/22 00:38:01;;;;;;;;;;;4.60;99.90;;;;;;5061884;28;19924;-78
2022/01/22 00:40:28;;;;;;;;;;;4.50;99.90;;;;;;5063711;28;19931;-78
2022/01/22 00:42:54;;;;;;;;;;;4.60;99.90;;;;;;5067321;28;19992;-78
2022/01/22 00:45:21;;;;;;;;;;;4.50;99.90;;;;;;5059956;28;19925;-78
2022/01/22 00:47:48;;;;;;;;;;;4.50;99.90;;;;;;5064090;28;20028;-78
2022/01/22 00:50:18;;;;;;;;;;;4.50;99.90;;;;;;5063894;28;19928;-78
2022/01/22 00:52:46;;;;;;;;;;;4.60;99.90;;;;;;5066479;28;20156;-78
2022/01/22 00:55:13;;;;;;;;;;;4.60;99.90;;;;;;5066459;28;19931;-78
2022/01/22 00:57:40;;;;;;;;;;;4.60;99.90;;;;;;5066243;28;19925;-78
2022/01/22 01:00:08;;;;;;;;;;;4.60;99.90;;;;;;5057014;28;19956;-77
2022/01/22 01:02:36;;;;;;;;;;;4.60;99.90;;;;;;5053045;28;19928;-77
2022/01/22 01:05:03;;;;;;;;;;;4.60;99.90;;;;;;5055044;28;20360;-77
2022/01/22 01:07:31;;;;;;;;;;;4.60;99.90;;;;;;5061574;28;20298;-77
2022/01/22 01:09:58;;;;;;;;;;;4.60;99.90;;;;;;5058075;28;20375;-77
2022/01/22 01:12:25;;;;;;;;;;;4.60;99.90;;;;;;5052530;28;19964;-77
2022/01/22 01:15:08;;;;;;;;;;;4.60;99.90;;;;;;5055294;28;19983;-77
2022/01/22 01:17:57;;;;;;;;;;;4.60;99.90;;;;;;5058752;28;19978;-77
2022/01/22 01:34:09;;;;;;;;;;;4.70;99.90;;;;;;5070253;28;20346;-77
2022/01/22 01:36:36;;;;;;;;;;;4.70;99.90;;;;;;5060008;28;19986;-77
2022/01/22 01:39:07;;;;;;;;;;;4.70;99.90;;;;;;5057381;28;20007;-78
2022/01/22 01:41:42;;;;;;;;;;;4.70;99.90;;;;;;5065134;28;20375;-78
2022/01/22 01:44:09;;;;;;;;;;;4.70;99.90;;;;;;5063840;28;19924;-78
2022/01/22 01:46:36;;;;;;;;;;;4.70;99.90;;;;;;5060726;28;20123;-78
2022/01/22 01:49:04;;;;;;;;;;;4.70;99.90;;;;;;5063237;28;19925;-78
2022/01/22 01:51:32;;;;;;;;;;;4.70;99.90;;;;;;5064423;28;19975;-78
2022/01/22 01:54:05;;;;;;;;;;;4.70;99.90;;;;;;5065386;28;19925;-78
2022/01/22 01:59:18;;;;;;;;;;;4.70;99.90;;;;;;5064759;28;19931;-78
2022/01/22 02:01:45;;;;;;;;;;;4.70;99.90;;;;;;5065431;28;19924;-78
2022/01/22 02:04:13;;;;;;;;;;;4.70;99.90;;;;;;5056446;28;19925;-78
2022/01/22 02:06:40;;;;;;;;;;;4.70;99.90;;;;;;5056391;28;19932;-76
2022/01/22 02:09:09;;;;;;;;;;;4.70;99.90;;;;;;5064374;28;19936;-77
2022/01/22 02:11:39;;;;;;;;;;;4.70;99.90;;;;;;5061334;28;20395;-78
2022/01/22 02:23:28;;;;;;;;;;;4.70;99.90;;;;;;5068216;28;19935;-78
2022/01/22 02:25:19;;;;;;;;;;;4.70;99.90;;;;;;5057408;28;19948;-78
2022/01/22 02:27:45;;;;;;;;;;;4.70;99.90;;;;;;5059480;28;19939;-78
2022/01/22 02:30:19;;;;;;;;;;;4.70;99.90;;;;;;5062534;28;19931;-78
2022/01/22 02:33:04;;;;;;;;;;;4.70;99.90;;;;;;5059153;28;19978;-78
2022/01/22 02:35:36;;;;;;;;;;;4.70;99.90;;;;;;5060696;28;19925;-76
2022/01/22 02:38:11;;;;;;;;;;;4.70;99.90;;;;;;5062688;28;20003;-76
2022/01/22 02:40:43;;;;;;;;;;;4.70;99.90;;;;;;5054065;28;19960;-76
2022/01/22 02:43:11;;;;;;;;;;;4.70;99.90;;;;;;5062644;28;20023;-78
2022/01/22 02:45:37;;;;;;;;;;;4.70;99.90;;;;;;5056403;28;20295;-76
2022/01/22 02:48:04;;;;;;;;;;;4.70;99.90;;;;;;5056785;28;19932;-76
2022/01/22 02:50:31;;;;;;;;;;;4.70;99.90;;;;;;5057848;28;19924;-76
2022/01/22 02:53:01;;;;;;;;;;;4.70;99.90;;;;;;5060711;28;19930;-76
2022/01/22 02:55:29;;;;;;;;;;;4.70;99.90;;;;;;5058390;28;20368;-77
2022/01/22 02:57:55;;;;;;;;;;;4.70;99.90;;;;;;5057788;28;19947;-76
2022/01/22 03:00:23;;;;;;;;;;;4.70;99.90;;;;;;5063672;28;20360;-77
2022/01/22 03:02:51;;;;;;;;;;;4.80;99.90;;;;;;5067368;28;20003;-76
2022/01/22 03:05:17;;;;;;;;;;;4.70;99.90;;;;;;5054593;28;19932;-76
2022/01/22 03:07:49;;;;;;;;;;;4.80;99.90;;;;;;5055065;28;19947;-75
2022/01/22 03:10:20;;;;;;;;;;;4.80;99.90;;;;;;5058798;28;19928;-76
2022/01/22 03:13:08;;;;;;;;;;;4.80;99.90;;;;;;5058704;28;19939;-76
2022/01/22 03:15:50;;;;;;;;;;;4.80;99.90;;;;;;5067238;28;20284;-76
2022/01/22 03:18:21;;;;;;;;;;;4.70;99.90;;;;;;5072184;28;19936;-76
2022/01/22 03:21:05;;;;;;;;;;;4.80;99.90;;;;;;5055571;28;19932;-76
2022/01/22 03:29:05;;;;;;;;;;;4.80;99.90;;;;;;5059953;28;19939;-76
2022/01/22 03:31:32;;;;;;;;;;;4.80;99.90;;;;;;5071329;28;19937;-76
2022/01/22 03:33:59;;;;;;;;;;;4.80;99.90;;;;;;5062577;28;20494;-76
2022/01/22 03:36:29;;;;;;;;;;;4.80;99.90;;;;;;5074275;28;19933;-76
2022/01/22 03:38:56;;;;;;;;;;;4.80;99.90;;;;;;5057665;28;19985;-76
2022/01/22 03:41:24;;;;;;;;;;;4.80;99.90;;;;;;5055519;28;19925;-76
2022/01/22 03:43:51;;;;;;;;;;;4.80;99.90;;;;;;5056410;28;19925;-76
2022/01/22 03:46:19;;;;;;;;;;;4.80;99.90;;;;;;5073106;28;19930;-77
2022/01/22 03:48:46;;;;;;;;;;;4.80;99.90;;;;;;5054049;28;20034;-77
2022/01/22 03:51:13;;;;;;;;;;;4.80;99.90;;;;;;5060350;28;19924;-77
2022/01/22 03:53:39;;;;;;;;;;;4.80;99.90;;;;;;5066441;28;19960;-77
2022/01/22 03:56:07;;;;;;;;;;;4.80;99.90;;;;;;5058531;28;20399;-78
2022/01/22 03:58:36;;;;;;;;;;;4.80;99.90;;;;;;5060496;28;19925;-76
2022/01/22 04:04:23;;;;;;;;;;;4.80;99.90;;;;;;5044993;28;20432;-76
2022/01/22 04:09:37;;;;;;;;;;;4.80;99.90;;;;;;5020859;28;19978;-76
2022/01/22 04:12:04;;;;;;;;;;;4.80;99.90;;;;;;5025677;28;19933;-77
2022/01/22 04:14:34;;;;;;;;;;;4.80;99.90;;;;;;5030357;28;19972;-77
2022/01/22 04:17:16;;;;;;;;;;;4.80;99.90;;;;;;5032430;28;19925;-76
2022/01/22 04:25:24;;;;;;;;;;;4.80;99.90;;;;;;5020157;28;19925;-77
2022/01/22 04:27:53;;;;;;;;;;;4.80;99.90;;;;;;5023183;28;19930;-76
2022/01/22 04:30:20;;;;;;;;;;;4.90;99.90;;;;;;5026673;28;19932;-76
2022/01/22 04:32:47;;;;;;;;;;;4.90;99.90;;;;;;5024103;28;20035;-75
2022/01/22 04:35:15;;;;;;;;;;;4.90;99.90;;;;;;5025449;28;19926;-75
2022/01/22 04:37:42;;;;;;;;;;;5.00;99.90;;;;;;5025588;28;19931;-75
2022/01/22 04:40:09;;;;;;;;;;;5.00;99.90;;;;;;5022658;28;19932;-75
2022/01/22 04:42:38;;;;;;;;;;;4.90;99.90;;;;;;5024810;28;20295;-75
2022/01/22 04:45:12;;;;;;;;;;;4.90;99.90;;;;;;5027437;28;19929;-76
2022/01/22 04:47:48;;;;;;;;;;;4.90;99.90;;;;;;5028471;28;20388;-76
2022/01/22 04:55:45;;;;;;;;;;;4.90;99.90;;;;;;5040743;28;19936;-78
2022/01/22 04:58:12;;;;;;;;;;;4.90;99.90;;;;;;5026200;28;19986;-77
2022/01/22 05:00:39;;;;;;;;;;;4.90;99.90;;;;;;5029532;28;19933;-79
2022/01/22 05:03:06;;;;;;;;;;;4.90;99.90;;;;;;5031072;28;20416;-78
2022/01/22 05:05:34;;;;;;;;;;;4.90;99.90;;;;;;5033198;28;20291;-77
2022/01/22 05:08:01;;;;;;;;;;;4.90;99.90;;;;;;5027790;28;20402;-78
2022/01/22 05:10:28;;;;;;;;;;;5.00;99.90;;;;;;5032203;28;19925;-78
2022/01/22 05:12:54;;;;;;;;;;;4.90;99.90;;;;;;5029339;28;19932;-78
2022/01/22 05:15:22;;;;;;;;;;;4.90;99.90;;;;;;5016112;28;19993;-78
2022/01/22 05:17:49;;;;;;;;;;;4.90;99.90;;;;;;5026973;28;20403;-77
2022/01/22 05:20:21;;;;;;;;;;;4.90;99.90;;;;;;5012611;28;20377;-78
2022/01/22 05:22:56;;;;;;;;;;;4.90;99.90;;;;;;5017474;28;20020;-77
2022/01/22 05:25:29;;;;;;;;;;;5.00;99.90;;;;;;5011885;28;20012;-78
2022/01/22 05:28:07;;;;;;;;;;;5.00;99.90;;;;;;5013017;28;20049;-77
2022/01/22 05:30:52;;;;;;;;;;;5.00;99.90;;;;;;5010741;28;19925;-76
2022/01/22 05:36:54;;;;;;;;;;;5.00;99.90;;;;;;5009995;28;19925;-76
2022/01/22 05:39:04;;;;;;;;;;;5.00;99.90;;;;;;5011597;28;19932;-77
2022/01/22 05:41:31;;;;;;;;;;;5.00;99.90;;;;;;5011671;28;19926;-76
2022/01/22 05:43:58;;;;;;;;;;;5.00;99.90;;;;;;5010098;28;19933;-76
2022/01/22 05:46:25;;;;;;;;;;;5.00;99.90;;;;;;5012063;28;19932;-76
2022/01/22 05:48:52;;;;;;;;;;;5.00;99.90;;;;;;5011900;28;19978;-76
2022/01/22 05:51:18;;;;;;;;;;;5.00;99.90;;;;;;5009935;28;19932;-76
2022/01/22 05:54:01;;;;;;;;;;;5.00;99.90;;;;;;5011198;28;19933;-76
2022/01/22 06:01:57;;;;;;;;;;;5.00;99.90;;;;;;5008269;28;19958;-76
2022/01/22 06:04:24;;;;;;;;;;;5.00;99.90;;;;;;5014373;28;19990;-76
2022/01/22 06:06:51;;;;;;;;;;;5.00;99.90;;;;;;5022150;28;19932;-76
2022/01/22 06:09:17;;;;;;;;;;;5.00;99.90;;;;;;5008169;28;19925;-76
2022/01/22 06:11:55;;;;;;;;;;;5.00;99.90;;;;;;5007546;28;19926;-76
2022/01/22 06:14:21;;;;;;;;;;;5.00;99.90;;;;;;5009860;28;19969;-76
2022/01/22 06:16:48;;;;;;;;;;;5.00;99.90;;;;;;5007074;28;20438;-77
2022/01/22 06:19:15;;;;;;;;;;;5.00;99.90;;;;;;5006544;28;19932;-76
2022/01/22 06:21:41;;;;;;;;;;;5.00;99.90;;;;;;5008239;28;19933;-77
2022/01/22 06:24:08;;;;;;;;;;;5.00;99.90;;;;;;5010023;28;19932;-77
2022/01/22 06:26:35;;;;;;;;;;;5.00;99.90;;;;;;5019890;28;19932;-77
2022/01/22 06:29:03;;;;;;;;;;;5.10;99.90;;;;;;5010315;28;19925;-77
2022/01/22 06:31:30;;;;;;;;;;;5.10;99.90;;;;;;5011184;28;19944;-77
2022/01/22 06:33:58;;;;;;;;;;;5.10;99.90;;;;;;5013471;28;19926;-76
2022/01/22 06:36:24;;;;;;;;;;;5.10;99.90;;;;;;5008731;28;20001;-75
2022/01/22 06:38:56;;;;;;;;;;;5.10;99.90;;;;;;5009162;28;20004;-76
2022/01/22 06:44:08;;;;;;;;;;;5.20;99.90;;;;;;5000278;28;20284;-76
2022/01/22 06:46:35;;;;;;;;;;;5.20;99.90;;;;;;5011797;28;19933;-76
2022/01/22 06:49:01;;;;;;;;;;;5.20;99.90;;;;;;5008474;28;19948;-75
2022/01/22 06:51:28;;;;;;;;;;;5.20;99.90;;;;;;5008085;28;20018;-76
2022/01/22 06:53:55;;;;;;;;;;;5.20;99.90;;;;;;5010270;28;19926;-76
2022/01/22 06:56:24;;;;;;;;;;;5.20;99.90;;;;;;5000114;28;19926;-75
2022/01/22 06:58:51;;;;;;;;;;;5.20;99.90;;;;;;5008513;28;19925;-76
2022/01/22 07:01:19;;;;;;;;;;;5.20;99.90;;;;;;5010638;28;20012;-77
2022/01/22 07:03:45;;;;;;;;;;;5.20;99.90;;;;;;5016751;28;20037;-77
2022/01/22 07:06:12;;;;;;;;;;;5.20;99.90;;;;;;5011776;28;19936;-78
2022/01/22 07:08:39;;;;;;;;;;;5.20;99.90;;;;;;5010712;28;19925;-77
2022/01/22 07:11:06;;;;;;;;;;;5.20;99.90;;;;;;5008420;28;20012;-76
2022/01/22 07:13:32;;;;;;;;;;;5.20;99.90;;;;;;5020092;28;19925;-77
2022/01/22 07:15:59;;;;;;;;;;;5.20;99.90;;;;;;5010106;28;19925;-77
2022/01/22 07:18:29;;;;;;;;;;;5.20;99.90;;;;;;5005235;28;19929;-76
2022/01/22 07:20:56;;;;;;;;;;;5.20;99.90;;;;;;5038513;28;19917;-80
2022/01/22 07:23:53;;;;;;;;;;;5.20;99.90;;;;;;5026936;28;19932;-81
2022/01/22 07:26:11;;;;;;;;;;;5.30;99.90;;;;;;5038466;28;19925;-78
2022/01/22 07:28:39;;;;;;;;;;;5.30;99.90;;;;;;5016997;28;20295;-77
2022/01/22 07:31:06;;;;;;;;;;;5.30;99.90;;;;;;5018816;28;19933;-79
2022/01/22 07:33:35;;;;;;;;;;;5.30;99.90;;;;;;5015432;28;19995;-75
2022/01/22 07:36:01;;;;;;;;;;;5.30;99.90;;;;;;5007685;28;19937;-75
2022/01/22 07:38:28;;;;;;;;;;;5.30;99.90;;;;;;5007885;28;19941;-76
2022/01/22 07:40:55;;;;;;;;;;;5.40;99.90;;;;;;4998566;28;19940;-76
2022/01/22 07:43:21;;;;;;;;;;;5.40;99.90;;;;;;5006300;28;19926;-76
2022/01/22 07:45:48;;;;;;;;;;;5.40;99.90;;;;;;5007301;28;20346;-77
2022/01/22 07:48:15;;;;;;;;;;;5.30;99.90;;;;;;5014158;28;19977;-78
2022/01/22 07:50:43;;;;;;;;;;;5.40;99.90;;;;;;5001896;28;19932;-76
2022/01/22 07:53:09;;;;;;;;;;;5.40;99.90;;;;;;5004795;28;19925;-75
2022/01/22 07:55:36;;;;;;;;;;;5.40;99.90;;;;;;5009613;28;20008;-75
2022/01/22 07:58:03;;;;;;;;;;;5.50;99.90;;;;;;5001224;28;20291;-75
2022/01/22 08:00:29;;;;;;;;;;;5.50;99.90;;;;;;5004878;28;19925;-75
2022/01/22 08:02:56;;;;;;;;;;;5.50;99.90;;;;;;5010382;28;19949;-76
2022/01/22 08:05:23;;;;;;;;;;;5.50;99.90;;;;;;5008040;28;19932;-75
2022/01/22 08:07:51;;;;;;;;;;;5.50;99.90;;;;;;5004699;28;20376;-75
2022/01/22 08:10:18;;;;;;;;;;;5.50;99.90;;;;;;5003849;28;19925;-75
2022/01/22 08:12:50;;;;;;;;;;;5.60;99.90;;;;;;5003134;28;19925;-75
2022/01/22 08:15:17;;;;;;;;;;;5.50;99.90;;;;;;5000926;28;19942;-75
2022/01/22 08:17:44;;;;;;;;;;;5.60;99.90;;;;;;5004420;28;20372;-74
2022/01/22 08:20:12;;;;;;;;;;;5.60;99.90;;;;;;5006587;28;19969;-74
2022/01/22 08:22:39;;;;;;;;;;;5.60;99.90;;;;;;5007185;28;20304;-75
2022/01/22 08:25:09;;;;;;;;;;;5.60;99.90;;;;;;5002904;28;19925;-75
2022/01/22 08:27:41;;;;;;;;;;;5.70;99.90;;;;;;5002394;28;19926;-74
2022/01/22 08:30:11;;;;;;;;;;;5.60;99.90;;;;;;5005722;28;19933;-75
2022/01/22 08:32:58;;;;;;;;;;;5.70;99.90;;;;;;5002945;28;20022;-75
2022/01/22 08:38:09;;;;;;;;;;;5.80;99.90;;;;;;5000896;28;20050;-75
2022/01/22 08:40:37;;;;;;;;;;;5.80;99.90;;;;;;5002457;28;19926;-78
2022/01/22 08:43:04;;;;;;;;;;;5.80;99.90;;;;;;5002857;28;19932;-75
2022/01/22 08:45:30;;;;;;;;;;;5.90;99.90;;;;;;5006416;28;19988;-76
2022/01/22 08:48:01;;;;;;;;;;;5.90;99.90;;;;;;5001027;28;19933;-76
2022/01/22 08:50:27;;;;;;;;;;;5.90;99.90;;;;;;5004806;28;19967;-76
2022/01/22 08:52:54;;;;;;;;;;;5.90;99.90;;;;;;5009378;28;19925;-76
2022/01/22 08:55:20;;;;;;;;;;;5.90;99.90;;;;;;5007142;28;20021;-77
2022/01/22 08:57:51;;;;;;;;;;;5.90;99.90;;;;;;5003767;28;19948;-75
2022/01/22 09:00:19;;;;;;;;;;;5.90;99.90;;;;;;5010119;28;19934;-77
2022/01/22 09:02:46;;;;;;;;;;;5.90;99.90;;;;;;5009697;28;19929;-76
2022/01/22 09:05:15;;;;;;;;;;;5.90;99.90;;;;;;5008164;28;20406;-76
2022/01/22 09:07:42;;;;;;;;;;;6.00;99.90;;;;;;5006293;28;19925;-76
2022/01/22 09:10:09;;;;;;;;;;;6.00;99.90;;;;;;5009018;28;19926;-76
2022/01/22 09:12:36;;;;;;;;;;;6.00;99.90;;;;;;5009719;28;19926;-75
2022/01/22 09:15:05;;;;;;;;;;;6.00;99.90;;;;;;5010093;28;19931;-76
2022/01/22 09:17:32;;;;;;;;;;;6.00;99.90;;;;;;5007835;28;19933;-75
2022/01/22 09:20:01;;;;;;;;;;;6.10;99.90;;;;;;5009133;28;19933;-75
2022/01/22 09:22:27;;;;;;;;;;;6.10;99.90;;;;;;5006937;28;19933;-75
2022/01/22 09:24:54;;;;;;;;;;;6.10;99.90;;;;;;5006682;28;19936;-75
2022/01/22 09:27:21;;;;;;;;;;;6.10;99.90;;;;;;5006529;28;19932;-75
2022/01/22 09:29:48;;;;;;;;;;;6.20;99.90;;;;;;5005300;28;19936;-72
2022/01/22 09:32:16;;;;;;;;;;;6.20;99.90;;;;;;5007529;28;19943;-76
2022/01/22 09:34:43;;;;;;;;;;;6.20;99.90;;;;;;5010452;28;20008;-74
2022/01/22 09:37:18;;;;;;;;;;;6.20;99.90;;;;;;5006497;28;20293;-75
2022/01/22 09:39:46;;;;;;;;;;;6.20;99.90;;;;;;5008195;27;20308;-72
2022/01/22 09:42:13;;;;;;;;;;;6.20;99.90;;;;;;5007516;28;20016;-75
2022/01/22 09:44:41;;;;;;;;;;;6.30;99.90;;;;;;5004764;28;19969;-72
2022/01/22 09:47:08;;;;;;;;;;;6.30;99.90;;;;;;5005336;28;19925;-75
2022/01/22 09:49:36;;;;;;;;;;;6.30;99.90;;;;;;5007169;28;19947;-75
2022/01/22 09:52:05;;;;;;;;;;;6.30;99.90;;;;;;5007778;28;19925;-72
2022/01/22 09:54:37;;;;;;;;;;;6.40;99.90;;;;;;5007506;28;19926;-75
2022/01/22 09:57:05;;;;;;;;;;;6.40;99.90;;;;;;5009898;28;20337;-75
2022/01/22 09:59:33;;;;;;;;;;;6.40;99.90;;;;;;5015667;28;20033;-76
2022/01/22 10:02:07;;;;;;;;;;;6.50;99.90;;;;;;5020458;28;20021;-76
2022/01/22 10:04:38;;;;;;;;;;;6.40;99.90;;;;;;5006288;28;19929;-70
2022/01/22 10:07:05;;;;;;;;;;;6.50;99.90;;;;;;5000377;28;19974;-73
2022/01/22 10:09:46;;;;;;;;;;;6.50;99.90;;;;;;5004082;28;19976;-71
2022/01/22 10:12:16;;;;;;;;;;;6.50;99.90;;;;;;5004534;28;20163;-71
2022/01/22 10:15:05;;;;;;;;;;;6.50;99.90;;;;;;5009193;28;19926;-78
2022/01/22 10:17:46;;;;;;;;;;;6.50;99.90;;;;;;5018005;28;19932;-78
2022/01/22 10:20:28;;;;;;;;;;;6.50;99.90;;;;;;5020446;28;20012;-76
2022/01/22 10:22:58;;;;;;;;;;;6.60;99.90;;;;;;5012463;28;19993;-77
2022/01/22 10:25:28;;;;;;;;;;;6.60;99.90;;;;;;5016458;28;19933;-78
2022/01/22 10:27:55;;;;;;;;;;;6.60;99.90;;;;;;5011820;28;19940;-76
2022/01/22 10:30:22;;;;;;;;;;;6.70;99.90;;;;;;5004808;28;19936;-75
2022/01/22 10:32:53;;;;;;;;;;;6.70;99.90;;;;;;5004403;28;19933;-76
2022/01/22 10:35:24;;;;;;;;;;;6.80;99.90;;;;;;5007019;28;19934;-75
2022/01/22 10:37:54;;;;;;;;;;;6.70;99.90;;;;;;5004464;28;19981;-73
2022/01/22 10:40:27;;;;;;;;;;;6.70;99.90;;;;;;5008860;28;19929;-76
2022/01/22 10:43:08;;;;;;;;;;;7.00;99.90;;;;;;5010155;28;19933;-76
2022/01/22 10:45:39;;;;;;;;;;;6.90;99.90;;;;;;5007100;28;19934;-75
2022/01/22 10:48:18;;;;;;;;;;;6.90;99.90;;;;;;4999019;28;19925;-76
2022/01/22 10:50:45;;;;;;;;;;;6.80;99.90;;;;;;5006533;28;19978;-76
2022/01/22 10:53:12;;;;;;;;;;;6.80;99.90;;;;;;5003672;28;19987;-76
2022/01/22 10:55:57;;;;;;;;;;;6.80;99.90;;;;;;5003748;28;20025;-76
2022/01/22 10:58:25;;;;;;;;;;;6.80;99.90;;;;;;5003491;28;19929;-77
2022/01/22 11:00:58;;;;;;;;;;;6.80;99.90;;;;;;5009649;28;19932;-76
2022/01/22 11:03:26;;;;;;;;;;;6.80;99.90;;;;;;4999804;28;19975;-76
2022/01/22 11:05:53;;;;;;;;;;;6.80;99.90;;;;;;5012072;28;19978;-77
2022/01/22 11:08:20;;;;;;;;;;;6.90;99.90;;;;;;5013287;28;19925;-76
2022/01/22 11:10:48;;;;;;;;;;;6.90;99.90;;;;;;5003674;28;19934;-77
2022/01/22 11:13:17;;;;;;;;;;;6.80;99.90;;;;;;5004037;28;19932;-77
2022/01/22 11:15:46;;;;;;;;;;;6.80;99.90;;;;;;5007019;28;19929;-76
2022/01/22 11:18:16;;;;;;;;;;;6.80;99.90;;;;;;5005095;28;19932;-75
2022/01/22 11:20:45;;;;;;;;;;;6.80;99.90;;;;;;5003506;28;20394;-75
2022/01/22 11:23:14;;;;;;;;;;;6.80;99.90;;;;;;5006937;28;20024;-76
2022/01/22 11:25:43;;;;;;;;;;;6.80;99.90;;;;;;5001567;28;20012;-73
2022/01/22 11:28:10;;;;;;;;;;;6.80;99.90;;;;;;5006240;28;20024;-72
2022/01/22 11:30:37;;;;;;;;;;;6.80;99.90;;;;;;5003272;28;20013;-74
2022/01/22 11:33:07;;;;;;;;;;;6.80;99.90;;;;;;5006934;28;19926;-71
2022/01/22 11:35:38;;;;;;;;;;;6.80;99.90;;;;;;5005967;28;20043;-73
2022/01/22 11:38:07;;;;;;;;;;;6.80;99.90;;;;;;5004117;28;19929;-73
2022/01/22 11:40:34;;;;;;;;;;;6.80;99.90;;;;;;5001722;28;19925;-73
2022/01/22 11:43:02;;;;;;;;;;;6.80;99.90;;;;;;5005179;28;19926;-73
2022/01/22 11:45:31;;;;;;;;;;;6.80;99.90;;;;;;5006278;28;19929;-76
2022/01/22 11:48:15;;;;;;;;;;;6.70;99.90;;;;;;5005669;28;20368;-78
2022/01/22 11:50:44;;;;;;;;;;;6.70;99.90;;;;;;5005902;28;19933;-76
2022/01/22 11:53:24;;;;;;;;;;;6.70;99.90;;;;;;5006974;28;20347;-77
2022/01/22 11:56:09;;;;;;;;;;;6.70;99.90;;;;;;5004962;28;19944;-75
2022/01/22 11:59:04;;;;;;;;;;;6.70;99.90;;;;;;5002635;28;19956;-76
2022/01/22 12:01:52;;;;;;;;;;;6.80;99.90;;;;;;5006961;28;19933;-76
2022/01/22 12:04:22;;;;;;;;;;;6.80;99.90;;;;;;5005352;28;19933;-76
2022/01/22 12:07:08;;;;;;;;;;;6.80;99.90;;;;;;5002097;28;19932;-76
2022/01/22 12:09:42;;;;;;;;;;;6.80;99.90;;;;;;4998986;28;19933;-76
2022/01/22 12:15:08;;;;;;;;;;;6.80;99.90;;;;;;4997592;28;20287;-75
2022/01/22 12:17:56;;;;;;;;;;;6.90;99.90;;;;;;5002564;28;19940;-76
2022/01/22 12:21:30;;;;;;;;;;;6.90;99.90;;;;;;4999661;28;19955;-76
2022/01/22 12:24:02;;;;;;;;;;;6.90;99.90;;;;;;5001164;28;19948;-77
2022/01/22 12:27:01;;;;;;;;;;;6.90;99.90;;;;;;5005260;28;19934;-76
2022/01/22 12:29:35;;;;;;;;;;;6.90;99.90;;;;;;5002266;28;19951;-76
2022/01/22 12:32:37;;;;;;;;;;;6.90;99.90;;;;;;5002978;28;19930;-76
2022/01/22 12:35:14;;;;;;;;;;;6.80;99.90;;;;;;4946730;28;20141;-76
2022/01/22 12:37:49;;;;;;;;;;;6.90;99.90;;;;;;4948947;28;19978;-75
2022/01/22 12:40:28;;;;;;;;;;;6.90;99.90;;;;;;4983598;28;19937;-77
2022/01/22 12:43:03;;;;;;;;;;;6.90;99.90;;;;;;5007507;28;19926;-76
2022/01/22 12:45:29;;;;;;;;;;;6.90;99.90;;;;;;5010723;28;19979;-76
2022/01/22 12:47:56;;;;;;;;;;;6.90;99.90;;;;;;5003424;28;20445;-76
2022/01/22 12:50:25;;;;;;;;;;;6.90;99.90;;;;;;5004693;28;19987;-75
2022/01/22 12:52:53;;;;;;;;;;;7.00;99.90;;;;;;5004107;28;19926;-76
2022/01/22 12:55:22;;;;;;;;;;;7.00;99.90;;;;;;5008483;28;20013;-75
2022/01/22 12:57:49;;;;;;;;;;;7.00;99.90;;;;;;5013505;28;19929;-79
2022/01/22 13:00:18;;;;;;;;;;;7.00;99.90;;;;;;5009598;28;19930;-77
2022/01/22 13:02:47;;;;;;;;;;;7.00;99.90;;;;;;5009962;28;19925;-78
2022/01/22 13:05:14;;;;;;;;;;;6.90;99.90;;;;;;5004066;28;20008;-78
2022/01/22 13:07:41;;;;;;;;;;;6.90;99.90;;;;;;5007308;28;19949;-77
2022/01/22 13:10:10;;;;;;;;;;;6.80;99.90;;;;;;5010889;28;19937;-77
2022/01/22 13:12:41;;;;;;;;;;;6.80;99.90;;;;;;5009102;28;19929;-77
2022/01/22 13:15:10;;;;;;;;;;;6.90;99.90;;;;;;5008734;28;19983;-77
2022/01/22 13:17:37;;;;;;;;;;;6.90;99.90;;;;;;5008647;28;19933;-76
2022/01/22 13:20:05;;;;;;;;;;;6.80;99.90;;;;;;5007728;28;19926;-76
2022/01/22 13:22:33;;;;;;;;;;;6.80;99.90;;;;;;5006586;28;20019;-75
2022/01/22 13:25:08;;;;;;;;;;;6.80;99.90;;;;;;5013068;28;19980;-77
2022/01/22 13:27:36;;;;;;;;;;;6.80;99.90;;;;;;5012261;28;19929;-78
2022/01/22 13:30:03;;;;;;;;;;;6.80;99.90;;;;;;5016260;28;19925;-76
2022/01/22 13:32:47;;;;;;;;;;;6.80;99.90;;;;;;5003495;28;19930;-76
2022/01/22 13:35:24;;;;;;;;;;;6.80;99.90;;;;;;5006511;28;19926;-77
2022/01/22 13:45:01;;;;;;;;;;;6.80;99.90;;;;;;5002933;28;20024;-76
2022/01/22 13:49:20;;;;;;;;;;;6.90;99.90;;;;;;5009578;28;20300;-76
2022/01/22 13:51:48;;;;;;;;;;;6.90;99.90;;;;;;5009272;28;19925;-75
2022/01/22 13:54:15;;;;;;;;;;;6.80;99.90;;;;;;5008931;28;19940;-76
2022/01/22 13:56:44;;;;;;;;;;;6.80;99.90;;;;;;5007840;28;19932;-77
2022/01/22 13:59:15;;;;;;;;;;;6.80;99.90;;;;;;5009647;28;19933;-78
2022/01/22 14:01:50;;;;;;;;;;;6.80;99.90;;;;;;5009373;28;19934;-77
2022/01/22 14:04:17;;;;;;;;;;;6.80;99.90;;;;;;5007680;28;20307;-76
2022/01/22 14:06:45;;;;;;;;;;;6.80;99.90;;;;;;5019072;28;20031;-78
2022/01/22 14:09:12;;;;;;;;;;;6.70;99.90;;;;;;5018238;28;19984;-78
2022/01/22 14:11:38;;;;;;;;;;;6.70;99.90;;;;;;5021254;28;19993;-78
2022/01/22 14:14:05;;;;;;;;;;;6.70;99.90;;;;;;5016309;28;20566;-77
2022/01/22 14:16:33;;;;;;;;;;;6.70;99.90;;;;;;5005514;28;20021;-76
2022/01/22 14:19:00;;;;;;;;;;;6.60;99.90;;;;;;5006593;28;19929;-76
2022/01/22 14:21:27;;;;;;;;;;;6.60;99.90;;;;;;5005451;28;19940;-75
2022/01/22 14:23:53;;;;;;;;;;;6.60;99.90;;;;;;5003178;28;19933;-76
2022/01/22 14:26:26;;;;;;;;;;;6.60;99.90;;;;;;5004086;28;19925;-75
2022/01/22 14:28:54;;;;;;;;;;;6.60;99.90;;;;;;5003403;28;20017;-77
2022/01/22 14:31:26;;;;;;;;;;;6.50;99.90;;;;;;5001748;28;20014;-77
2022/01/22 14:33:54;;;;;;;;;;;6.50;99.90;;;;;;5001862;28;19933;-77
2022/01/22 14:36:22;;;;;;;;;;;6.50;99.90;;;;;;5002078;28;19934;-76
2022/01/22 14:38:53;;;;;;;;;;;6.40;99.90;;;;;;5004838;28;20292;-75
2022/01/22 14:46:54;;;;;;;;;;;6.30;99.90;;;;;;4997024;28;19929;-77
2022/01/22 14:49:27;;;;;;;;;;;6.30;99.90;;;;;;4999588;28;19934;-76
2022/01/22 14:51:53;;;;;;;;;;;6.30;99.90;;;;;;5004235;28;20387;-77
2022/01/22 14:54:21;;;;;;;;;;;6.30;99.90;;;;;;5005323;28;19925;-76
2022/01/22 14:56:47;;;;;;;;;;;6.30;99.90;;;;;;5001520;28;19933;-77
2022/01/22 14:59:14;;;;;;;;;;;6.30;99.90;;;;;;5000414;28;19993;-76
2022/01/22 15:01:41;;;;;;;;;;;6.30;99.90;;;;;;5009415;28;19932;-78
2022/01/22 15:04:08;;;;;;;;;;;6.30;99.90;;;;;;5006573;28;19926;-77
2022/01/22 15:06:36;;;;;;;;;;;6.30;99.90;;;;;;5004068;28;19926;-77
2022/01/22 15:09:04;;;;;;;;;;;6.20;99.90;;;;;;5009574;28;19934;-77
2022/01/22 15:11:33;;;;;;;;;;;6.20;99.90;;;;;;4999848;28;19934;-79
2022/01/22 15:14:01;;;;;;;;;;;6.20;99.90;;;;;;5004985;28;19972;-75
2022/01/22 15:16:35;;;;;;;;;;;6.20;99.90;;;;;;5005233;28;19975;-76
2022/01/22 15:19:04;;;;;;;;;;;6.20;99.90;;;;;;5008953;28;19968;-76
2022/01/22 15:21:30;;;;;;;;;;;6.20;99.90;;;;;;5009752;28;20007;-77
2022/01/22 15:23:58;;;;;;;;;;;6.20;99.90;;;;;;5008827;28;19925;-76
2022/01/22 15:26:25;;;;;;;;;;;6.20;99.90;;;;;;5008013;28;19925;-76
2022/01/22 15:28:53;;;;;;;;;;;6.20;99.90;;;;;;5004949;28;19979;-77
2022/01/22 15:31:34;;;;;;;;;;;6.20;99.90;;;;;;5006586;28;19926;-77
2022/01/22 15:34:11;;;;;;;;;;;6.20;99.90;;;;;;5004092;28;19925;-77
2022/01/22 15:36:39;;;;;;;;;;;7.30;99.90;;;;;;5004482;28;20295;-75
2022/01/22 15:39:08;;;;;;;;;;;6.10;99.90;;;;;;5002692;28;20080;-75
2022/01/22 15:41:37;;;;;;;;;;;6.10;99.90;;;;;;5003291;28;20024;-74
2022/01/22 15:44:08;;;;;;;;;;;6.10;99.90;;;;;;5005319;28;19929;-76
2022/01/22 15:46:37;;;;;;;;;;;6.10;99.90;;;;;;5005953;28;19932;-75
2022/01/22 15:49:04;;;;;;;;;;;6.10;99.90;;;;;;5002382;28;19925;-75
2022/01/22 15:51:30;;;;;;;;;;;6.10;99.90;;;;;;5005741;28;19934;-76
2022/01/22 15:53:57;;;;;;;;;;;6.10;99.90;;;;;;5002922;28;19926;-76
2022/01/22 15:56:25;;;;;;;;;;;6.10;99.90;;;;;;5005436;28;19929;-76
2022/01/22 15:58:52;;;;;;;;;;;6.20;99.90;;;;;;5001084;28;19956;-76
2022/01/22 16:01:18;;;;;;;;;;;6.10;99.90;;;;;;5004803;28;19925;-75
2022/01/22 16:03:54;;;;;;;;;;;6.20;99.90;;;;;;5005037;28;20460;-75
2022/01/22 16:06:22;;;;;;;;;;;6.20;99.90;;;;;;5000381;28;19937;-75